Time;durP1;ratioP1;P1;durP2;ratioP2;P2;SDS_P1;SDS_P2;PMS_P1;PMS_P2;Temp;Humidity;BMP_temperature;BMP_pressure;BME280_temperature;BME280_humidity;BME280_pressure;Samples;Min_cycle;Max_cycle;Signal;HPM_P1;HPM_P2
2022/01/03 00:00:49;;;;;;;14.95;7.30;;;;;;;;;;5070933;28;20039;-37
2022/01/03 00:03:16;;;;;;;12.85;6.20;;;;;;;;;;5072657;28;20032;-38
2022/01/03 00:05:41;;;;;;;12.15;5.40;;;;;;;;;;5075013;28;20435;-37
2022/01/03 00:08:07;;;;;;;14.77;6.53;;;;;;;;;;5074866;28;20024;-38
2022/01/03 00:10:33;;;;;;;12.75;4.72;;;;;;;;;;5074526;28;20028;-37
2022/01/03 00:12:59;;;;;;;10.73;5.57;;;;;;;;;;5074767;28;20024;-38
2022/01/03 00:15:24;;;;;;;14.65;7.03;;;;;;;;;;5074652;28;20089;-38
2022/01/03 00:17:50;;;;;;;13.05;6.10;;;;;;;;;;5074309;28;20142;-38
2022/01/03 00:20:15;;;;;;;10.38;6.60;;;;;;;;;;5074482;28;20033;-38
2022/01/03 00:22:41;;;;;;;14.05;6.50;;;;;;;;;;5074547;28;20029;-37
2022/01/03 00:25:15;;;;;;;13.05;4.93;;;;;;;;;;5074486;28;20155;-38
2022/01/03 00:27:45;;;;;;;11.30;5.93;;;;;;;;;;5074514;28;20066;-38
2022/01/03 00:30:11;;;;;;;9.98;5.13;;;;;;;;;;5072918;28;20020;-38
2022/01/03 00:32:37;;;;;;;14.82;6.38;;;;;;;;;;5089735;28;20066;-38
2022/01/03 00:35:03;;;;;;;17.10;7.00;;;;;;;;;;5089686;28;20111;-39
2022/01/03 00:37:30;;;;;;;9.13;5.95;;;;;;;;;;5074016;28;20115;-38
2022/01/03 00:39:56;;;;;;;13.02;6.95;;;;;;;;;;5073823;28;20072;-38
2022/01/03 00:42:22;;;;;;;8.10;5.05;;;;;;;;;;5073925;28;20037;-38
2022/01/03 00:44:48;;;;;;;14.57;6.20;;;;;;;;;;5073812;28;20028;-38
2022/01/03 00:47:15;;;;;;;17.40;7.00;;;;;;;;;;5089478;28;20452;-37
2022/01/03 00:49:40;;;;;;;12.32;5.35;;;;;;;;;;5073911;28;20132;-38
2022/01/03 00:52:05;;;;;;;10.57;5.05;;;;;;;;;;5073679;28;20220;-38
2022/01/03 00:54:31;;;;;;;17.40;6.20;;;;;;;;;;5073803;28;20043;-37
2022/01/03 00:57:01;;;;;;;10.05;5.35;;;;;;;;;;5073855;28;20025;-38
2022/01/03 00:59:46;;;;;;;14.85;7.28;;;;;;;;;;5073899;28;20029;-38
2022/01/03 01:02:13;;;;;;;8.63;5.13;;;;;;;;;;5073752;28;20048;-37
2022/01/03 01:04:43;;;;;;;12.38;6.15;;;;;;;;;;5072333;28;20526;-38
2022/01/03 01:07:09;;;;;;;14.15;6.20;;;;;;;;;;5073677;28;20036;-38
2022/01/03 01:09:35;;;;;;;11.18;4.88;;;;;;;;;;5072253;28;20024;-38
2022/01/03 01:12:01;;;;;;;10.07;5.47;;;;;;;;;;5073447;28;20029;-37
2022/01/03 01:14:36;;;;;;;13.02;5.55;;;;;;;;;;5070933;28;20020;-38
2022/01/03 01:17:03;;;;;;;12.30;4.85;;;;;;;;;;5088775;28;20028;-39
2022/01/03 01:19:29;;;;;;;13.02;6.28;;;;;;;;;;5073313;28;20024;-38
2022/01/03 01:21:56;;;;;;;13.40;6.40;;;;;;;;;;5071732;28;20037;-38
2022/01/03 01:24:24;;;;;;;11.40;5.05;;;;;;;;;;5071923;28;20177;-38
2022/01/03 01:29:38;;;;;;;13.65;6.05;;;;;;;;;;5073385;28;20025;-37
2022/01/03 01:32:08;;;;;;;10.77;5.45;;;;;;;;;;5071716;28;20024;-38
2022/01/03 01:34:35;;;;;;;11.40;5.43;;;;;;;;;;5072947;28;20028;-38
2022/01/03 01:37:01;;;;;;;10.07;5.60;;;;;;;;;;5073112;28;20020;-38
2022/01/03 01:39:29;;;;;;;12.48;6.82;;;;;;;;;;5071527;28;20447;-38
2022/01/03 01:41:56;;;;;;;9.15;5.05;;;;;;;;;;5072819;28;20052;-38
2022/01/03 01:44:23;;;;;;;13.95;6.50;;;;;;;;;;5072869;28;20028;-38
2022/01/03 01:46:54;;;;;;;18.92;7.50;;;;;;;;;;5071355;28;20028;-37
2022/01/03 01:49:21;;;;;;;11.75;6.55;;;;;;;;;;5071407;28;20133;-38
2022/01/03 01:51:56;;;;;;;16.48;6.30;;;;;;;;;;5071305;28;20024;-38
2022/01/03 01:54:25;;;;;;;14.18;6.45;;;;;;;;;;5088242;28;20037;-38
2022/01/03 01:56:57;;;;;;;9.48;5.45;;;;;;;;;;5071058;28;20489;-38
2022/01/03 01:59:36;;;;;;;12.90;6.45;;;;;;;;;;5088097;28;20042;-38
2022/01/03 02:02:06;;;;;;;11.85;7.28;;;;;;;;;;5072244;28;20382;-37
2022/01/03 02:04:48;;;;;;;16.13;7.90;;;;;;;;;;5072415;28;20478;-37
2022/01/03 02:07:34;;;;;;;13.95;6.28;;;;;;;;;;5087941;28;20051;-38
2022/01/03 02:10:03;;;;;;;9.35;5.25;;;;;;;;;;5070828;28;20044;-38
2022/01/03 02:12:30;;;;;;;14.48;5.82;;;;;;;;;;5070972;28;20506;-38
2022/01/03 02:14:58;;;;;;;12.60;5.40;;;;;;;;;;5087757;28;20430;-38
2022/01/03 02:17:24;;;;;;;11.70;5.22;;;;;;;;;;5070749;28;20040;-38
2022/01/03 02:20:21;;;;;;;9.93;5.35;;;;;;;;;;5070609;28;20475;-38
2022/01/03 02:22:49;;;;;;;12.23;5.65;;;;;;;;;;5062556;28;20071;-37
2022/01/03 02:25:19;;;;;;;10.30;5.75;;;;;;;;;;5070347;28;20425;-38
2022/01/03 02:27:46;;;;;;;8.32;4.35;;;;;;;;;;5070622;28;20024;-37
2022/01/03 02:30:15;;;;;;;9.70;5.53;;;;;;;;;;5072213;28;20017;-38
2022/01/03 02:32:41;;;;;;;12.68;5.65;;;;;;;;;;5071776;28;20570;-37
2022/01/03 02:35:08;;;;;;;11.05;5.22;;;;;;;;;;5070443;28;20020;-38
2022/01/03 02:37:34;;;;;;;9.93;5.03;;;;;;;;;;5070516;28;20540;-38
2022/01/03 02:39:59;;;;;;;12.63;7.50;;;;;;;;;;5070169;28;20044;-37
2022/01/03 02:42:25;;;;;;;17.98;5.55;;;;;;;;;;5071731;28;20090;-38
2022/01/03 02:45:02;;;;;;;11.90;5.20;;;;;;;;;;5070216;28;20029;-37
2022/01/03 02:47:27;;;;;;;12.57;6.20;;;;;;;;;;5071747;28;20574;-38
2022/01/03 02:49:53;;;;;;;10.63;5.97;;;;;;;;;;5087166;28;20100;-38
2022/01/03 02:52:19;;;;;;;12.68;7.35;;;;;;;;;;5070283;28;20029;-38
2022/01/03 02:54:45;;;;;;;9.57;4.93;;;;;;;;;;5071514;28;20012;-38
2022/01/03 02:57:11;;;;;;;9.20;5.72;;;;;;;;;;5070192;28;20081;-38
2022/01/03 02:59:36;;;;;;;13.98;5.95;;;;;;;;;;5071561;28;20055;-37
2022/01/03 03:02:02;;;;;;;12.00;5.72;;;;;;;;;;5071305;28;20028;-37
2022/01/03 03:04:28;;;;;;;10.98;6.45;;;;;;;;;;5070229;28;20449;-38
2022/01/03 03:06:54;;;;;;;14.80;6.40;;;;;;;;;;5071533;28;20028;-38
2022/01/03 03:09:21;;;;;;;15.73;5.75;;;;;;;;;;5070041;28;20112;-38
2022/01/03 03:11:48;;;;;;;12.07;6.22;;;;;;;;;;5086887;28;20024;-38
2022/01/03 03:14:13;;;;;;;9.77;5.70;;;;;;;;;;5071491;28;20027;-38
2022/01/03 03:16:39;;;;;;;8.35;5.25;;;;;;;;;;5071556;28;20154;-41
2022/01/03 03:19:04;;;;;;;13.77;6.30;;;;;;;;;;5070001;28;20016;-37
2022/01/03 03:21:30;;;;;;;10.80;6.07;;;;;;;;;;5069788;28;20514;-37
2022/01/03 03:23:56;;;;;;;9.65;5.22;;;;;;;;;;5069915;28;20027;-37
2022/01/03 03:26:22;;;;;;;12.75;6.97;;;;;;;;;;5086658;28;20032;-38
2022/01/03 03:28:47;;;;;;;11.38;6.45;;;;;;;;;;5069822;28;20033;-37
2022/01/03 03:31:12;;;;;;;11.50;5.88;;;;;;;;;;5069916;28;20040;-38
2022/01/03 03:33:40;;;;;;;11.73;6.30;;;;;;;;;;5071375;28;20360;-37
2022/01/03 03:36:06;;;;;;;13.73;5.90;;;;;;;;;;5071256;28;20039;-37
2022/01/03 03:38:32;;;;;;;11.13;6.15;;;;;;;;;;5071982;28;20020;-38
2022/01/03 03:41:02;;;;;;;11.60;6.10;;;;;;;;;;5075385;28;20037;-38
2022/01/03 03:43:32;;;;;;;14.52;6.57;;;;;;;;;;5073751;28;20041;-38
2022/01/03 03:46:01;;;;;;;11.27;6.15;;;;;;;;;;5090546;28;20483;-38
2022/01/03 03:48:26;;;;;;;17.33;7.13;;;;;;;;;;5075087;28;20027;-38
2022/01/03 03:50:53;;;;;;;13.70;6.32;;;;;;;;;;5074891;28;20038;-38
2022/01/03 03:53:20;;;;;;;9.40;5.35;;;;;;;;;;5075266;28;20032;-38
2022/01/03 03:55:46;;;;;;;15.30;6.15;;;;;;;;;;5073514;28;20024;-38
2022/01/03 03:58:14;;;;;;;10.82;7.03;;;;;;;;;;5073493;28;20020;-38
2022/01/03 04:00:40;;;;;;;9.57;5.88;;;;;;;;;;5090438;28;20028;-38
2022/01/03 04:03:07;;;;;;;15.02;6.78;;;;;;;;;;5073300;28;20067;-38
2022/01/03 04:05:33;;;;;;;14.43;7.28;;;;;;;;;;5090204;28;20031;-37
2022/01/03 04:07:58;;;;;;;12.38;6.13;;;;;;;;;;5073217;28;20032;-38
2022/01/03 04:10:24;;;;;;;15.07;6.43;;;;;;;;;;5073328;28;20067;-38
2022/01/03 04:12:50;;;;;;;13.20;6.25;;;;;;;;;;5073167;28;20027;-38
2022/01/03 04:15:17;;;;;;;16.48;6.57;;;;;;;;;;5073107;28;20475;-37
2022/01/03 04:17:43;;;;;;;15.43;6.85;;;;;;;;;;5074772;28;20138;-38
2022/01/03 04:20:13;;;;;;;13.85;6.28;;;;;;;;;;5073051;28;20432;-38
2022/01/03 04:22:39;;;;;;;11.85;5.95;;;;;;;;;;5089967;28;20410;-37
2022/01/03 04:25:04;;;;;;;15.98;7.38;;;;;;;;;;5074458;28;20025;-38
2022/01/03 04:27:31;;;;;;;9.18;5.57;;;;;;;;;;5072956;28;20031;-37
2022/01/03 04:29:57;;;;;;;18.48;7.32;;;;;;;;;;5072901;28;20602;-38
2022/01/03 04:32:22;;;;;;;12.02;6.53;;;;;;;;;;5089834;28;20032;-38
2022/01/03 04:34:48;;;;;;;13.90;5.88;;;;;;;;;;5074257;28;20020;-37
2022/01/03 04:37:15;;;;;;;13.90;6.38;;;;;;;;;;5072874;28;20028;-38
2022/01/03 04:39:41;;;;;;;14.10;6.80;;;;;;;;;;5072537;28;20498;-38
2022/01/03 04:42:07;;;;;;;13.57;6.18;;;;;;;;;;5072575;28;20039;-38
2022/01/03 04:44:33;;;;;;;14.55;7.10;;;;;;;;;;5072758;28;20028;-38
2022/01/03 04:46:59;;;;;;;15.45;7.18;;;;;;;;;;5072361;28;20500;-38
2022/01/03 04:49:25;;;;;;;19.20;7.70;;;;;;;;;;5073770;28;20024;-38
2022/01/03 04:51:51;;;;;;;17.75;7.55;;;;;;;;;;5072498;28;20086;-38
2022/01/03 04:54:17;;;;;;;22.00;8.07;;;;;;;;;;5072510;28;20025;-38
2022/01/03 04:56:42;;;;;;;16.45;7.88;;;;;;;;;;5072432;28;20029;-38
2022/01/03 04:59:08;;;;;;;17.45;7.97;;;;;;;;;;5072320;28;20465;-37
2022/01/03 05:01:33;;;;;;;17.45;7.53;;;;;;;;;;5073800;28;20025;-37
2022/01/03 05:03:59;;;;;;;15.27;7.47;;;;;;;;;;5072226;28;20429;-38
2022/01/03 05:06:25;;;;;;;13.02;6.30;;;;;;;;;;5089114;28;20446;-37
2022/01/03 05:08:51;;;;;;;13.07;7.10;;;;;;;;;;5072138;28;20062;-38
2022/01/03 05:11:18;;;;;;;15.07;7.25;;;;;;;;;;5089042;28;20056;-37
2022/01/03 05:13:44;;;;;;;19.42;7.90;;;;;;;;;;5072232;28;20635;-37
2022/01/03 05:16:10;;;;;;;17.13;6.72;;;;;;;;;;5071867;28;20036;-37
2022/01/03 05:18:36;;;;;;;15.10;7.15;;;;;;;;;;5072113;28;20483;-38
2022/01/03 05:21:02;;;;;;;20.80;8.50;;;;;;;;;;5088837;28;20037;-38
2022/01/03 05:23:30;;;;;;;19.02;8.75;;;;;;;;;;5073151;28;20040;-38
2022/01/03 05:25:55;;;;;;;20.75;8.38;;;;;;;;;;5071840;28;20093;-38
2022/01/03 05:28:21;;;;;;;20.55;8.40;;;;;;;;;;5071847;28;20514;-38
2022/01/03 05:30:46;;;;;;;18.40;7.72;;;;;;;;;;5073128;28;20028;-38
2022/01/03 05:33:12;;;;;;;18.60;7.97;;;;;;;;;;5073048;28;20009;-38
2022/01/03 05:35:38;;;;;;;17.00;8.02;;;;;;;;;;5073056;28;20379;-38
2022/01/03 05:38:05;;;;;;;19.30;8.63;;;;;;;;;;5071505;28;20020;-38
2022/01/03 05:40:31;;;;;;;18.95;8.43;;;;;;;;;;5072899;28;20055;-38
2022/01/03 05:42:57;;;;;;;22.75;7.07;;;;;;;;;;5071509;28;20123;-37
2022/01/03 05:45:23;;;;;;;16.27;7.90;;;;;;;;;;5071500;28;20140;-37
2022/01/03 05:47:48;;;;;;;18.08;8.18;;;;;;;;;;5071471;28;20585;-37
2022/01/03 05:50:17;;;;;;;19.73;8.65;;;;;;;;;;5088407;28;20139;-37
2022/01/03 05:52:43;;;;;;;17.98;8.38;;;;;;;;;;5071357;28;20020;-38
2022/01/03 05:55:09;;;;;;;16.77;8.88;;;;;;;;;;5071224;28;20128;-38
2022/01/03 05:57:35;;;;;;;21.73;9.23;;;;;;;;;;5071311;28;20028;-37
2022/01/03 06:00:04;;;;;;;16.70;8.60;;;;;;;;;;5070655;28;20032;-38
2022/01/03 06:02:41;;;;;;;18.30;7.88;;;;;;;;;;5072504;28;20462;-37
2022/01/03 06:05:10;;;;;;;22.92;9.00;;;;;;;;;;5087813;28;20071;-38
2022/01/03 06:07:36;;;;;;;24.60;8.32;;;;;;;;;;5072671;28;20417;-37
2022/01/03 06:10:08;;;;;;;20.05;8.52;;;;;;;;;;5070944;28;20028;-38
2022/01/03 06:12:35;;;;;;;23.90;9.32;;;;;;;;;;5087847;28;20037;-38
2022/01/03 06:15:01;;;;;;;26.55;8.30;;;;;;;;;;5087799;28;20024;-38
2022/01/03 06:17:26;;;;;;;18.83;8.70;;;;;;;;;;5070873;28;20039;-39
2022/01/03 06:19:54;;;;;;;17.10;7.57;;;;;;;;;;5070783;28;20020;-37
2022/01/03 06:22:20;;;;;;;20.77;7.95;;;;;;;;;;5070685;28;20157;-37
2022/01/03 06:24:51;;;;;;;19.15;6.88;;;;;;;;;;5070673;28;20024;-37
2022/01/03 06:27:18;;;;;;;15.90;7.50;;;;;;;;;;5070689;28;20567;-38
2022/01/03 06:29:43;;;;;;;14.55;7.65;;;;;;;;;;5070654;28;20082;-38
2022/01/03 06:32:10;;;;;;;18.20;6.72;;;;;;;;;;5070525;28;20498;-38
2022/01/03 06:34:35;;;;;;;27.90;10.10;;;;;;;;;;5071746;28;20027;-37
2022/01/03 06:37:01;;;;;;;21.75;8.00;;;;;;;;;;5087367;28;20047;-37
2022/01/03 06:39:30;;;;;;;20.63;8.18;;;;;;;;;;5070381;28;20194;-37
2022/01/03 06:41:57;;;;;;;18.83;8.77;;;;;;;;;;5070251;28;20052;-38
2022/01/03 06:44:22;;;;;;;20.25;8.40;;;;;;;;;;5070477;28;20383;-38
2022/01/03 06:46:48;;;;;;;19.45;8.25;;;;;;;;;;5070372;28;20487;-37
2022/01/03 06:49:13;;;;;;;15.45;8.45;;;;;;;;;;5070205;28;20054;-38
2022/01/03 06:51:41;;;;;;;18.40;8.98;;;;;;;;;;5087265;28;20032;-37
2022/01/03 06:54:13;;;;;;;17.77;7.65;;;;;;;;;;5070137;28;20039;-38
2022/01/03 06:56:51;;;;;;;15.48;7.50;;;;;;;;;;5086969;28;20063;-38
2022/01/03 06:59:16;;;;;;;14.07;5.30;;;;;;;;;;5087102;28;20421;-37
2022/01/03 07:01:42;;;;;;;12.40;5.13;;;;;;;;;;5070127;28;20439;-38
2022/01/03 07:04:08;;;;;;;12.10;7.30;;;;;;;;;;5086922;28;20041;-37
2022/01/03 07:06:33;;;;;;;14.02;7.35;;;;;;;;;;5071686;28;20455;-37
2022/01/03 07:08:59;;;;;;;10.35;5.32;;;;;;;;;;5071600;28;20490;-37
2022/01/03 07:11:24;;;;;;;14.00;5.38;;;;;;;;;;5071238;28;20380;-37
2022/01/03 07:13:54;;;;;;;12.85;5.90;;;;;;;;;;5070587;28;20115;-37
2022/01/03 07:19:06;;;;;;;10.13;5.38;;;;;;;;;;5071307;28;20029;-38
2022/01/03 07:21:32;;;;;;;15.13;7.38;;;;;;;;;;5071174;28;20024;-37
2022/01/03 07:23:58;;;;;;;14.52;6.07;;;;;;;;;;5071188;28;20028;-37
2022/01/03 07:26:24;;;;;;;12.60;6.20;;;;;;;;;;5071439;28;20515;-37
2022/01/03 07:28:50;;;;;;;13.35;5.65;;;;;;;;;;5071105;28;20035;-38
2022/01/03 07:31:15;;;;;;;10.38;5.57;;;;;;;;;;5086756;28;20033;-38
2022/01/03 07:33:41;;;;;;;12.07;5.85;;;;;;;;;;5071153;28;20043;-38
2022/01/03 07:36:08;;;;;;;13.55;5.55;;;;;;;;;;5071056;28;20029;-38
2022/01/03 07:38:33;;;;;;;11.27;5.47;;;;;;;;;;5071133;28;20374;-38
2022/01/03 07:40:59;;;;;;;9.13;5.15;;;;;;;;;;5071355;28;20032;-37
2022/01/03 07:43:24;;;;;;;14.68;6.20;;;;;;;;;;5071144;28;20517;-38
2022/01/03 07:45:50;;;;;;;14.80;6.70;;;;;;;;;;5071181;28;20059;-38
2022/01/03 07:48:15;;;;;;;12.40;6.03;;;;;;;;;;5071316;28;20036;-38
2022/01/03 07:50:40;;;;;;;15.52;5.68;;;;;;;;;;5071327;28;20020;-37
2022/01/03 07:53:07;;;;;;;10.15;5.68;;;;;;;;;;5070797;28;20040;-38
2022/01/03 07:55:33;;;;;;;16.10;6.32;;;;;;;;;;5070999;28;20020;-37
2022/01/03 07:57:59;;;;;;;13.07;4.95;;;;;;;;;;5070496;28;20033;-38
2022/01/03 08:00:25;;;;;;;9.93;5.18;;;;;;;;;;5070824;28;20043;-37
2022/01/03 08:02:50;;;;;;;6.50;4.07;;;;;;;;;;5071000;28;20474;-37
2022/01/03 08:05:16;;;;;;;8.38;4.00;;;;;;;;;;5071042;28;20024;-38
2022/01/03 08:07:42;;;;;;;10.10;4.75;;;;;;;;;;5070858;28;20024;-37
2022/01/03 08:10:08;;;;;;;7.22;4.35;;;;;;;;;;5070765;28;20025;-37
2022/01/03 08:12:34;;;;;;;15.90;4.18;;;;;;;;;;5070743;28;20033;-37
2022/01/03 08:15:00;;;;;;;6.20;3.95;;;;;;;;;;5070902;28;20021;-38
2022/01/03 08:17:26;;;;;;;7.80;4.20;;;;;;;;;;5070715;28;20032;-38
2022/01/03 08:19:51;;;;;;;10.15;4.60;;;;;;;;;;5070622;28;20466;-37
2022/01/03 08:22:17;;;;;;;8.93;4.22;;;;;;;;;;5070861;28;20032;-37
2022/01/03 08:24:43;;;;;;;7.60;4.50;;;;;;;;;;5073015;28;20508;-37
2022/01/03 08:27:08;;;;;;;8.70;4.75;;;;;;;;;;5074238;28;20063;-37
2022/01/03 08:29:34;;;;;;;7.00;4.50;;;;;;;;;;5074224;28;20050;-37
2022/01/03 08:31:59;;;;;;;5.18;2.97;;;;;;;;;;5074387;28;20501;-38
2022/01/03 08:34:25;;;;;;;6.07;4.00;;;;;;;;;;5074075;28;20024;-38
2022/01/03 08:36:51;;;;;;;5.43;3.42;;;;;;;;;;5074098;28;20111;-38
2022/01/03 08:39:16;;;;;;;8.20;4.45;;;;;;;;;;5074128;28;20502;-37
2022/01/03 08:41:42;;;;;;;8.65;3.72;;;;;;;;;;5089634;28;20059;-37
2022/01/03 08:44:08;;;;;;;8.27;4.03;;;;;;;;;;5073938;28;20044;-38
2022/01/03 08:46:34;;;;;;;6.53;3.53;;;;;;;;;;5073958;28;20028;-38
2022/01/03 08:48:59;;;;;;;7.30;3.58;;;;;;;;;;5073706;28;20028;-37
2022/01/03 08:51:25;;;;;;;6.07;3.88;;;;;;;;;;5073923;28;20028;-37
2022/01/03 08:53:51;;;;;;;6.85;4.20;;;;;;;;;;5074145;28;20024;-38
2022/01/03 08:56:17;;;;;;;9.35;4.40;;;;;;;;;;5073698;28;20432;-37
2022/01/03 08:58:42;;;;;;;8.35;3.17;;;;;;;;;;5074052;28;20025;-38
2022/01/03 09:01:08;;;;;;;6.90;3.50;;;;;;;;;;5073698;28;20104;-37
2022/01/03 09:03:33;;;;;;;7.50;3.33;;;;;;;;;;5073602;28;20451;-37
2022/01/03 09:06:00;;;;;;;7.13;4.35;;;;;;;;;;5073449;28;20458;-37
2022/01/03 09:08:25;;;;;;;7.53;3.35;;;;;;;;;;5073922;28;20016;-38
2022/01/03 09:10:51;;;;;;;5.03;3.33;;;;;;;;;;5073590;28;20047;-37
2022/01/03 09:13:17;;;;;;;13.20;5.03;;;;;;;;;;5073661;28;20067;-37
2022/01/03 09:15:46;;;;;;;10.43;5.88;;;;;;;;;;5073366;28;20028;-37
2022/01/03 09:18:12;;;;;;;11.02;4.55;;;;;;;;;;5072007;28;20052;-37
2022/01/03 09:20:38;;;;;;;13.30;5.93;;;;;;;;;;5073627;28;20060;-37
2022/01/03 09:23:11;;;;;;;8.13;4.53;;;;;;;;;;5073256;28;20071;-37
2022/01/03 09:30:47;;;;;;;10.23;5.03;;;;;;;;;;5073226;28;20526;-37
2022/01/03 09:33:12;;;;;;;11.63;4.45;;;;;;;;;;5073070;28;20103;-37
2022/01/03 09:35:38;;;;;;;8.90;4.25;;;;;;;;;;5072254;28;20394;-42
2022/01/03 09:38:04;;;;;;;9.98;3.85;;;;;;;;;;5073155;28;20024;-37
2022/01/03 09:40:30;;;;;;;6.80;3.55;;;;;;;;;;5072834;28;20076;-37
2022/01/03 09:42:57;;;;;;;11.27;4.00;;;;;;;;;;5073037;28;20055;-38
2022/01/03 09:45:25;;;;;;;13.60;4.65;;;;;;;;;;5073083;28;20032;-38
2022/01/03 09:47:52;;;;;;;6.28;4.57;;;;;;;;;;5072802;28;20024;-38
2022/01/03 09:50:21;;;;;;;7.90;5.68;;;;;;;;;;5073037;28;20024;-37
2022/01/03 09:52:46;;;;;;;11.85;4.85;;;;;;;;;;5072898;28;20107;-37
2022/01/03 09:55:12;;;;;;;9.60;5.13;;;;;;;;;;5088063;28;20635;-37
2022/01/03 09:57:39;;;;;;;6.18;4.00;;;;;;;;;;5072933;28;20033;-38
2022/01/03 10:00:05;;;;;;;7.15;3.63;;;;;;;;;;5072631;28;20036;-38
2022/01/03 10:02:30;;;;;;;6.90;3.33;;;;;;;;;;5072742;28;20137;-37
2022/01/03 10:04:56;;;;;;;6.28;3.50;;;;;;;;;;5072691;28;20048;-37
2022/01/03 10:07:23;;;;;;;6.25;3.72;;;;;;;;;;5072357;28;20423;-37
2022/01/03 10:09:49;;;;;;;5.63;3.17;;;;;;;;;;5072790;28;20248;-37
2022/01/03 10:12:15;;;;;;;11.90;3.65;;;;;;;;;;5072469;28;20048;-37
2022/01/03 10:14:41;;;;;;;7.90;4.53;;;;;;;;;;5072128;28;20037;-38
2022/01/03 10:17:07;;;;;;;10.32;4.18;;;;;;;;;;5072440;28;20036;-37
2022/01/03 10:19:53;;;;;;;10.15;4.05;;;;;;;;;;5072144;28;20036;-42
2022/01/03 10:22:21;;;;;;;9.23;4.53;;;;;;;;;;5071606;28;20044;-38
2022/01/03 10:24:46;;;;;;;11.35;5.53;;;;;;;;;;5072312;28;20021;-37
2022/01/03 10:27:12;;;;;;;9.93;4.32;;;;;;;;;;5072026;28;20020;-37
2022/01/03 10:29:37;;;;;;;6.40;3.35;;;;;;;;;;5071876;28;20024;-37
2022/01/03 10:32:05;;;;;;;5.18;3.70;;;;;;;;;;5071920;28;20109;-37
2022/01/03 10:34:32;;;;;;;6.45;3.65;;;;;;;;;;5072169;28;20628;-37
2022/01/03 10:36:58;;;;;;;7.90;3.80;;;;;;;;;;5071736;28;20031;-38
2022/01/03 10:39:25;;;;;;;9.02;4.20;;;;;;;;;;5071733;28;20128;-38
2022/01/03 10:42:14;;;;;;;8.13;4.50;;;;;;;;;;5087284;28;20643;-37
2022/01/03 10:44:42;;;;;;;6.68;3.15;;;;;;;;;;5066058;28;20059;-37
2022/01/03 10:47:09;;;;;;;9.10;4.25;;;;;;;;;;5071375;28;20471;-37
2022/01/03 10:49:37;;;;;;;9.32;5.20;;;;;;;;;;5071948;28;20036;-37
2022/01/03 10:52:17;;;;;;;8.45;3.88;;;;;;;;;;5071470;28;20020;-37
2022/01/03 10:54:44;;;;;;;8.18;3.60;;;;;;;;;;5071569;28;20052;-37
2022/01/03 10:57:09;;;;;;;9.05;4.18;;;;;;;;;;5071652;28;20028;-37
2022/01/03 10:59:36;;;;;;;7.82;4.15;;;;;;;;;;5071871;28;20501;-38
2022/01/03 11:02:04;;;;;;;10.45;4.93;;;;;;;;;;5071270;28;20528;-38
2022/01/03 11:04:35;;;;;;;7.63;3.65;;;;;;;;;;5086962;28;20094;-38
2022/01/03 11:13:15;;;;;;;8.68;3.92;;;;;;;;;;5071307;28;20030;-38
2022/01/03 11:15:55;;;;;;;7.07;4.03;;;;;;;;;;5071556;28;20075;-37
2022/01/03 11:18:31;;;;;;;9.93;4.32;;;;;;;;;;5071175;28;20020;-37
2022/01/03 11:21:11;;;;;;;8.80;3.83;;;;;;;;;;5071571;28;20040;-37
2022/01/03 11:23:37;;;;;;;7.45;4.05;;;;;;;;;;5071136;28;20383;-38
2022/01/03 11:26:11;;;;;;;9.95;3.40;;;;;;;;;;5071373;28;20028;-37
2022/01/03 11:28:36;;;;;;;6.22;3.67;;;;;;;;;;5071177;28;20083;-38
2022/01/03 11:31:03;;;;;;;11.25;4.85;;;;;;;;;;5069940;28;20130;-37
2022/01/03 11:33:28;;;;;;;8.35;4.93;;;;;;;;;;5071396;28;20032;-37
2022/01/03 11:35:56;;;;;;;8.02;4.47;;;;;;;;;;5071087;28;20013;-37
2022/01/03 11:38:23;;;;;;;7.80;3.78;;;;;;;;;;5071058;28;20028;-38
2022/01/03 11:40:49;;;;;;;8.60;3.85;;;;;;;;;;5071025;28;20037;-37
2022/01/03 11:43:15;;;;;;;4.95;3.42;;;;;;;;;;5071264;28;20171;-38
2022/01/03 11:45:40;;;;;;;7.53;4.03;;;;;;;;;;5071047;28;20017;-37
2022/01/03 11:48:07;;;;;;;7.00;3.88;;;;;;;;;;5070947;28;20050;-37
2022/01/03 11:50:33;;;;;;;7.18;3.50;;;;;;;;;;5071095;28;20467;-37
2022/01/03 11:52:59;;;;;;;7.85;3.42;;;;;;;;;;5070905;28;20028;-37
2022/01/03 11:55:25;;;;;;;9.43;5.38;;;;;;;;;;5070940;28;20023;-38
2022/01/03 12:06:09;;;;;;;7.82;3.20;;;;;;;;;;5065777;28;20032;-37
2022/01/03 12:08:35;;;;;;;5.45;3.17;;;;;;;;;;5074612;28;20100;-37
2022/01/03 12:11:01;;;;;;;7.20;3.13;;;;;;;;;;5074914;28;20028;-38
2022/01/03 12:13:46;;;;;;;8.50;3.58;;;;;;;;;;5074689;28;20024;-37
2022/01/03 12:16:12;;;;;;;5.07;2.85;;;;;;;;;;5074268;28;20033;-37
2022/01/03 12:18:38;;;;;;;5.28;3.30;;;;;;;;;;5074633;28;20112;-39
2022/01/03 12:21:05;;;;;;;7.28;3.95;;;;;;;;;;5074444;28;20445;-37
2022/01/03 12:23:44;;;;;;;4.78;2.85;;;;;;;;;;5074099;28;20039;-38
2022/01/03 12:26:09;;;;;;;4.55;2.80;;;;;;;;;;5074533;28;20033;-37
2022/01/03 12:28:53;;;;;;;6.38;3.20;;;;;;;;;;5074296;28;20386;-38
2022/01/03 12:31:19;;;;;;;4.03;2.08;;;;;;;;;;5074483;28;20490;-38
2022/01/03 12:34:04;;;;;;;5.47;3.33;;;;;;;;;;5074184;28;20099;-38
2022/01/03 12:36:30;;;;;;;6.13;3.42;;;;;;;;;;5073983;28;20531;-38
2022/01/03 12:39:06;;;;;;;8.15;3.83;;;;;;;;;;5074077;28;20048;-38
2022/01/03 12:41:42;;;;;;;4.93;3.13;;;;;;;;;;5074184;28;20039;-38
2022/01/03 12:44:12;;;;;;;4.68;2.42;;;;;;;;;;5073790;28;20507;-37
2022/01/03 12:46:37;;;;;;;6.80;3.13;;;;;;;;;;5073988;28;20008;-37
2022/01/03 12:49:22;;;;;;;4.55;2.60;;;;;;;;;;5073802;28;20032;-37
2022/01/03 12:51:47;;;;;;;4.13;3.00;;;;;;;;;;5073866;28;20039;-38
2022/01/03 12:54:13;;;;;;;6.13;3.00;;;;;;;;;;5073976;28;20029;-37
2022/01/03 12:56:39;;;;;;;6.88;3.47;;;;;;;;;;5073902;28;20493;-38
2022/01/03 12:59:12;;;;;;;7.82;3.60;;;;;;;;;;5073970;28;20048;-38
2022/01/03 13:01:38;;;;;;;7.32;4.40;;;;;;;;;;5073705;28;20506;-37
2022/01/03 13:04:18;;;;;;;6.40;3.30;;;;;;;;;;5073762;28;20032;-37
2022/01/03 13:06:44;;;;;;;4.82;3.40;;;;;;;;;;5073939;28;20028;-37
2022/01/03 13:09:11;;;;;;;7.35;3.28;;;;;;;;;;5073411;28;20035;-37
2022/01/03 13:11:43;;;;;;;9.38;3.55;;;;;;;;;;5073589;28;20035;-38
2022/01/03 13:14:09;;;;;;;4.40;2.88;;;;;;;;;;5073345;28;20470;-37
2022/01/03 13:16:36;;;;;;;4.90;3.08;;;;;;;;;;5073460;28;20031;-38
2022/01/03 13:19:07;;;;;;;3.95;3.00;;;;;;;;;;5073256;28;20463;-37
2022/01/03 13:21:38;;;;;;;6.32;3.53;;;;;;;;;;5073004;28;20501;-37
2022/01/03 13:24:07;;;;;;;7.00;3.10;;;;;;;;;;5073217;28;20620;-37
2022/01/03 13:26:33;;;;;;;4.68;2.78;;;;;;;;;;5073270;28;20515;-37
2022/01/03 13:29:03;;;;;;;6.00;3.42;;;;;;;;;;5073203;28;20120;-37
2022/01/03 13:31:28;;;;;;;4.38;3.30;;;;;;;;;;5073175;28;20021;-37
2022/01/03 13:33:58;;;;;;;3.60;2.63;;;;;;;;;;5073021;28;20051;-38
2022/01/03 13:36:50;;;;;;;5.93;3.22;;;;;;;;;;5073087;28;20043;-38
2022/01/03 13:39:18;;;;;;;5.95;3.17;;;;;;;;;;5070651;28;20503;-38
2022/01/03 13:41:45;;;;;;;5.32;2.60;;;;;;;;;;5072929;28;20029;-37
2022/01/03 13:44:22;;;;;;;5.90;3.88;;;;;;;;;;5072724;28;20135;-38
2022/01/03 13:49:37;;;;;;;2.78;1.77;;;;;;;;;;5072840;28;20028;-38
2022/01/03 13:52:02;;;;;;;3.85;2.60;;;;;;;;;;5072685;28;20490;-38
2022/01/03 13:54:29;;;;;;;4.30;2.67;;;;;;;;;;5072723;28;20024;-37
2022/01/03 13:56:55;;;;;;;4.53;3.38;;;;;;;;;;5072916;28;20364;-37
2022/01/03 13:59:22;;;;;;;5.28;3.00;;;;;;;;;;5072457;28;20387;-38
2022/01/03 14:01:47;;;;;;;7.90;3.15;;;;;;;;;;5072779;28;20118;-38
2022/01/03 14:04:14;;;;;;;5.35;2.88;;;;;;;;;;5072546;28;20055;-37
2022/01/03 14:06:40;;;;;;;6.75;3.25;;;;;;;;;;5072814;28;20638;-38
2022/01/03 14:09:18;;;;;;;3.97;2.13;;;;;;;;;;5072270;28;20021;-38
2022/01/03 14:11:44;;;;;;;4.80;2.00;;;;;;;;;;5072407;28;20039;-37
2022/01/03 14:14:09;;;;;;;4.00;3.40;;;;;;;;;;5072490;28;20012;-37
2022/01/03 14:16:49;;;;;;;4.95;3.08;;;;;;;;;;5072278;28;20039;-42
2022/01/03 14:19:14;;;;;;;2.45;1.92;;;;;;;;;;5072035;28;20132;-37
2022/01/03 14:21:40;;;;;;;5.43;3.75;;;;;;;;;;5071772;28;20439;-37
2022/01/03 14:24:06;;;;;;;5.55;3.03;;;;;;;;;;5071950;28;20052;-37
2022/01/03 14:26:32;;;;;;;5.38;2.95;;;;;;;;;;5072098;28;20024;-38
2022/01/03 14:29:13;;;;;;;4.45;2.13;;;;;;;;;;5072229;28;20738;-37
2022/01/03 14:31:42;;;;;;;5.45;2.83;;;;;;;;;;5071802;28;20043;-38
2022/01/03 14:34:08;;;;;;;3.25;2.47;;;;;;;;;;5071866;28;20498;-37
2022/01/03 14:36:40;;;;;;;3.03;2.03;;;;;;;;;;5071853;28;20029;-38
2022/01/03 14:39:05;;;;;;;3.53;1.80;;;;;;;;;;5071765;28;20052;-38
2022/01/03 14:41:31;;;;;;;5.07;3.20;;;;;;;;;;5071900;28;20032;-38
2022/01/03 14:43:59;;;;;;;9.82;4.68;;;;;;;;;;5071604;28;20048;-38
2022/01/03 14:46:29;;;;;;;7.57;4.15;;;;;;;;;;5071754;28;20024;-37
2022/01/03 14:48:55;;;;;;;4.57;2.67;;;;;;;;;;5071640;28;20052;-38
2022/01/03 14:51:20;;;;;;;4.03;2.70;;;;;;;;;;5071546;28;20067;-38
2022/01/03 14:53:45;;;;;;;4.30;2.65;;;;;;;;;;5071846;28;20056;-37
2022/01/03 14:56:26;;;;;;;6.32;2.50;;;;;;;;;;5071840;28;20091;-37
2022/01/03 14:59:14;;;;;;;4.38;2.50;;;;;;;;;;5071554;28;20021;-38
2022/01/03 15:01:41;;;;;;;4.93;2.95;;;;;;;;;;5071629;28;20047;-38
2022/01/03 15:04:06;;;;;;;5.00;3.63;;;;;;;;;;5071345;28;20043;-38
2022/01/03 15:06:32;;;;;;;8.63;4.68;;;;;;;;;;5071439;28;20391;-37